createdAt,value
2017-04-04T00:00:36.917Z,81.94
2017-04-04T00:01:17.494Z,82.32
2017-04-04T00:01:58.136Z,82.32
2017-04-04T00:02:38.791Z,82.32
2017-04-04T00:03:19.441Z,82.51
2017-04-04T00:04:00.098Z,82.32
2017-04-04T00:04:41.781Z,82.42
2017-04-04T00:05:22.431Z,82.13
2017-04-04T00:06:03.084Z,82.13
2017-04-04T00:06:43.744Z,82.13
2017-04-04T00:07:24.395Z,82.23
2017-04-04T00:08:05.024Z,82.32
2017-04-04T00:08:45.715Z,82.6
2017-04-04T00:09:26.346Z,82.6
2017-04-04T00:10:06.992Z,82.32
2017-04-04T00:10:47.633Z,82.42
2017-04-04T00:11:28.177Z,82.42
2017-04-04T00:12:08.854Z,82.32
2017-04-04T00:12:49.484Z,82.04
2017-04-04T00:13:30.044Z,82.32
2017-04-04T00:14:10.715Z,82.51
2017-04-04T00:14:51.346Z,82.32
2017-04-04T00:15:31.909Z,82.42
2017-04-04T00:16:12.576Z,82.42
2017-04-04T00:16:53.218Z,82.42
2017-04-04T00:17:34.554Z,82.7
2017-04-04T00:18:15.241Z,82.23
2017-04-04T00:18:55.886Z,82.51
2017-04-04T00:19:37.493Z,82.42
2017-04-04T00:20:18.112Z,82.32
2017-04-04T00:20:58.777Z,82.42
2017-04-04T00:21:39.443Z,82.51
2017-04-04T00:22:20.084Z,82.23
2017-04-04T00:23:00.761Z,82.42
2017-04-04T00:23:41.396Z,82.42
2017-04-04T00:24:22.044Z,82.32
2017-04-04T00:25:02.700Z,82.51
2017-04-04T00:25:43.345Z,82.13
2017-04-04T00:26:24.012Z,82.42
2017-04-04T00:27:04.654Z,82.23
2017-04-04T00:27:46.337Z,82.32
2017-04-04T00:28:26.993Z,82.7
2017-04-04T00:29:07.629Z,82.7
2017-04-04T00:29:48.301Z,82.51
2017-04-04T00:30:28.961Z,82.79
2017-04-04T00:31:09.610Z,82.79
2017-04-04T00:31:50.238Z,82.79
2017-04-04T00:32:30.912Z,82.6
2017-04-04T00:33:12.601Z,82.6
2017-04-04T00:33:53.224Z,82.6
2017-04-04T00:34:34.913Z,82.51
2017-04-04T00:35:15.571Z,82.51
2017-04-04T00:35:56.225Z,82.7
2017-04-04T00:36:36.885Z,82.7
2017-04-04T00:37:17.563Z,83.17
2017-04-04T00:38:00.057Z,82.79
2017-04-04T00:38:40.659Z,83.08
2017-04-04T00:39:21.331Z,83.27
2017-04-04T00:40:01.999Z,83.17
2017-04-04T00:40:42.645Z,83.27
2017-04-04T00:41:23.281Z,83.27
2017-04-04T00:42:03.941Z,83.27
2017-04-04T00:42:44.628Z,83.08
2017-04-04T00:43:25.260Z,83.17
2017-04-04T00:44:05.946Z,83.08
2017-04-04T00:44:46.554Z,83.08
2017-04-04T00:45:27.190Z,83.08
2017-04-04T00:46:07.788Z,83.17
2017-04-04T00:46:48.380Z,83.27
2017-04-04T00:47:28.949Z,83.27
2017-04-04T00:48:09.648Z,83.36
2017-04-04T00:48:50.303Z,83.27
2017-04-04T00:49:30.891Z,83.46
2017-04-04T00:50:11.483Z,83.55
2017-04-04T00:50:52.121Z,83.46
2017-04-04T00:51:32.787Z,83.27
2017-04-04T00:52:13.401Z,83.23
2017-04-04T00:52:54.089Z,83.13
2017-04-04T00:53:34.746Z,83.27
2017-04-04T00:54:15.398Z,83.36
2017-04-04T00:54:56.028Z,83.36
2017-04-04T00:55:37.615Z,83.08
2017-04-04T00:56:18.281Z,83.46
2017-04-04T00:56:58.904Z,83.13
2017-04-04T00:57:39.555Z,83.04
2017-04-04T00:58:20.224Z,83.13
2017-04-04T00:59:00.876Z,83.23
2017-04-04T00:59:41.537Z,83.7
2017-04-04T01:00:22.182Z,83.23
2017-04-04T01:01:03.376Z,83.7
2017-04-04T01:01:43.984Z,83.7
2017-04-04T01:02:24.533Z,83.42
2017-04-04T01:03:05.216Z,83.89
2017-04-04T01:03:45.890Z,83.42
2017-04-04T01:04:26.493Z,83.8
2017-04-04T01:05:07.077Z,83.51
2017-04-04T01:05:47.695Z,83.42
2017-04-04T01:06:28.359Z,83.51
2017-04-04T01:07:09.011Z,83.51
2017-04-04T01:07:49.655Z,83.7
2017-04-04T01:08:30.315Z,83.7
2017-04-04T01:09:10.968Z,83.51
2017-04-04T01:09:51.640Z,83.61
2017-04-04T01:10:33.315Z,83.61
2017-04-04T01:11:13.990Z,83.13
2017-04-04T01:11:54.597Z,83.61
2017-04-04T01:12:35.174Z,83.23
2017-04-04T01:13:15.839Z,83.61
2017-04-04T01:13:56.499Z,83.61
2017-04-04T01:14:37.095Z,83.7
2017-04-04T01:15:17.711Z,83.7
2017-04-04T01:15:58.324Z,83.7
2017-04-04T01:16:38.984Z,83.7
2017-04-04T01:17:19.631Z,83.7
2017-04-04T01:18:00.283Z,83.51
2017-04-04T01:18:40.948Z,83.61
2017-04-04T01:19:21.590Z,83.61
2017-04-04T01:20:02.241Z,83.7
2017-04-04T01:20:42.921Z,83.8
2017-04-04T01:21:23.541Z,83.8
2017-04-04T01:22:04.208Z,83.51
2017-04-04T01:22:44.858Z,83.61
2017-04-04T01:23:26.287Z,83.61
2017-04-04T01:24:06.876Z,83.51
2017-04-04T01:24:47.537Z,83.7
2017-04-04T01:25:28.193Z,83.61
2017-04-04T01:26:08.871Z,83.7
2017-04-04T01:26:49.494Z,84.27
2017-04-04T01:27:30.028Z,84.08
2017-04-04T01:28:11.699Z,84.08
2017-04-04T01:28:52.374Z,84.08
2017-04-04T01:29:32.958Z,83.98
2017-04-04T01:30:13.553Z,84.08
2017-04-04T01:30:54.120Z,84.17
2017-04-04T01:31:34.781Z,84.27
2017-04-04T01:32:15.439Z,84.17
2017-04-04T01:32:56.092Z,83.98
2017-04-04T01:33:36.748Z,83.98
2017-04-04T01:34:17.430Z,84.27
2017-04-04T01:34:58.083Z,84.08
2017-04-04T01:35:39.450Z,84.08
2017-04-04T01:36:20.045Z,84.27
2017-04-04T01:37:00.598Z,84.27
2017-04-04T01:37:41.260Z,84.08
2017-04-04T01:38:21.863Z,84.08
2017-04-04T01:39:02.453Z,84.08
2017-04-04T01:39:43.004Z,84.17
2017-04-04T01:40:23.684Z,84.27
2017-04-04T01:41:04.266Z,84.17
2017-04-04T01:41:44.859Z,83.89
2017-04-04T01:42:25.410Z,84.08
2017-04-04T01:43:06.090Z,84.17
2017-04-04T01:43:46.671Z,84.55
2017-04-04T01:44:27.270Z,84.55
2017-04-04T01:45:07.867Z,84.46
2017-04-04T01:45:49.504Z,84.55
2017-04-04T01:46:30.160Z,84.27
2017-04-04T01:47:10.712Z,84.27
2017-04-04T01:47:51.378Z,84.27
2017-04-04T01:48:32.005Z,84.36
2017-04-04T01:49:12.581Z,84.27
2017-04-04T01:49:53.233Z,84.36
2017-04-04T01:50:33.859Z,84.36
2017-04-04T01:51:14.515Z,84.17
2017-04-04T01:51:55.161Z,84.13
2017-04-04T01:52:35.803Z,84.94
2017-04-04T01:53:16.470Z,84.74
2017-04-04T01:53:57.124Z,84.27
2017-04-04T01:54:37.777Z,84.46
2017-04-04T01:55:18.433Z,84.46
2017-04-04T01:55:59.022Z,84.65
2017-04-04T01:56:39.648Z,84.84
2017-04-04T01:57:21.319Z,84.55
2017-04-04T01:58:01.883Z,84.51
2017-04-04T01:58:42.553Z,84.74
2017-04-04T01:59:23.169Z,84.7
2017-04-04T02:00:03.756Z,84.46
2017-04-04T02:00:44.391Z,84.46
2017-04-04T02:01:24.984Z,84.55
2017-04-04T02:02:05.675Z,84.08
2017-04-04T02:02:46.262Z,84.42
2017-04-04T02:03:27.929Z,84.42
2017-04-04T02:04:09.336Z,84.23
2017-04-04T02:04:49.925Z,84.42
2017-04-04T02:05:30.501Z,84.42
2017-04-04T02:06:11.155Z,84.51
2017-04-04T02:06:51.847Z,84.61
2017-04-04T02:07:32.462Z,84.51
2017-04-04T02:08:13.115Z,84.23
2017-04-04T02:08:53.779Z,84.32
2017-04-04T02:09:34.412Z,84.42
2017-04-04T02:10:15.068Z,84.7
2017-04-04T02:10:55.720Z,84.7
2017-04-04T02:11:36.322Z,84.7
2017-04-04T02:12:16.906Z,84.51
2017-04-04T02:12:57.490Z,84.7
2017-04-04T02:13:38.132Z,84.61
2017-04-04T02:14:18.802Z,85.08
2017-04-04T02:14:59.406Z,84.8
2017-04-04T02:15:39.977Z,84.89
2017-04-04T02:16:21.668Z,84.99
2017-04-04T02:17:02.251Z,84.99
2017-04-04T02:17:42.854Z,85.17
2017-04-04T02:18:23.430Z,84.8
2017-04-04T02:19:04.081Z,85.08
2017-04-04T02:19:44.758Z,84.8
2017-04-04T02:20:25.357Z,85.17
2017-04-04T02:21:05.936Z,84.99
2017-04-04T02:21:46.571Z,85.17
2017-04-04T02:22:27.216Z,85.08
2017-04-04T02:23:07.792Z,85.08
2017-04-04T02:23:48.435Z,84.8
2017-04-04T02:24:29.069Z,84.8
2017-04-04T02:25:09.620Z,84.7
2017-04-04T02:25:50.275Z,84.8
2017-04-04T02:26:30.987Z,84.89
2017-04-04T02:27:11.572Z,84.89
2017-04-04T02:27:52.138Z,84.61
2017-04-04T02:28:32.802Z,84.51
2017-04-04T02:29:13.394Z,84.51
2017-04-04T02:29:53.984Z,85.27
2017-04-04T02:30:34.557Z,85.08
2017-04-04T02:31:16.244Z,84.89
2017-04-04T02:31:56.874Z,84.89
2017-04-04T02:32:38.454Z,85.17
2017-04-04T02:33:19.123Z,84.99
2017-04-04T02:33:59.762Z,85.08
2017-04-04T02:34:41.455Z,84.99
2017-04-04T02:35:22.086Z,84.99
2017-04-04T02:36:02.732Z,85.08
2017-04-04T02:36:43.401Z,84.99
2017-04-04T02:37:24.055Z,84.99
2017-04-04T02:38:04.705Z,85.08
2017-04-04T02:38:45.391Z,84.89
2017-04-04T02:39:26.050Z,84.89
2017-04-04T02:40:06.776Z,84.7
2017-04-04T02:40:47.422Z,85.27
2017-04-04T02:41:28.077Z,85.08
2017-04-04T02:42:09.736Z,85.17
2017-04-04T02:42:50.412Z,85.17
2017-04-04T02:43:31.035Z,85.08
2017-04-04T02:44:11.710Z,84.8
2017-04-04T02:44:52.360Z,84.8
2017-04-04T02:45:33.018Z,84.8
2017-04-04T02:46:13.647Z,85.08
2017-04-04T02:46:54.229Z,85.08
2017-04-04T02:47:34.885Z,85.27
2017-04-04T02:48:15.516Z,85.17
2017-04-04T02:48:56.075Z,85.08
2017-04-04T02:49:36.733Z,85.08
2017-04-04T02:50:17.359Z,85.08
2017-04-04T02:50:57.949Z,84.99
2017-04-04T02:51:38.593Z,85.08
2017-04-04T02:52:19.281Z,85.17
2017-04-04T02:52:59.912Z,85.08
2017-04-04T02:53:40.601Z,85.17
2017-04-04T02:54:21.190Z,85.08
2017-04-04T02:55:02.822Z,85.08
2017-04-04T02:55:43.420Z,85.08
2017-04-04T02:56:24.061Z,85.46
2017-04-04T02:57:05.736Z,85.17
2017-04-04T02:57:46.401Z,85.08
2017-04-04T02:58:27.040Z,85.27
2017-04-04T02:59:07.695Z,85.27
2017-04-04T02:59:49.270Z,85.55
2017-04-04T03:00:29.919Z,85.46
2017-04-04T03:01:10.589Z,85.65
2017-04-04T03:01:52.252Z,85.65
2017-04-04T03:02:32.908Z,85.74
2017-04-04T03:03:13.558Z,85.65
2017-04-04T03:03:54.213Z,85.36
2017-04-04T03:04:35.896Z,85.55
2017-04-04T03:05:17.564Z,85.46
2017-04-04T03:05:58.155Z,85.46
2017-04-04T03:06:39.090Z,85.46
2017-04-04T03:07:19.732Z,85.46
2017-04-04T03:08:00.403Z,85.27
2017-04-04T03:08:41.059Z,85.36
2017-04-04T03:09:21.714Z,85.46
2017-04-04T03:10:04.306Z,85.55
2017-04-04T03:10:44.972Z,85.27
2017-04-04T03:11:25.652Z,85.36
2017-04-04T03:12:06.247Z,85.84
2017-04-04T03:12:46.806Z,85.84
2017-04-04T03:13:27.489Z,85.65
2017-04-04T03:14:08.163Z,85.65
2017-04-04T03:14:48.852Z,85.55
2017-04-04T03:15:29.412Z,85.65
2017-04-04T03:16:10.073Z,85.65
2017-04-04T03:16:50.673Z,85.65
2017-04-04T03:17:31.268Z,85.65
2017-04-04T03:18:11.835Z,86.22
2017-04-04T03:18:53.526Z,85.93
2017-04-04T03:19:34.109Z,86.22
2017-04-04T03:20:14.688Z,85.84
2017-04-04T03:20:55.258Z,86.12
2017-04-04T03:21:35.918Z,85.99
2017-04-04T03:22:17.533Z,86.12
2017-04-04T03:22:58.132Z,86.03
2017-04-04T03:23:38.730Z,86.03
2017-04-04T03:24:19.353Z,86.03
2017-04-04T03:25:00.965Z,86.03
2017-04-04T03:25:41.558Z,85.84
2017-04-04T03:26:22.207Z,86.12
2017-04-04T03:27:02.864Z,86.12
2017-04-04T03:27:43.508Z,86.12
2017-04-04T03:28:24.158Z,86.08
2017-04-04T03:29:04.827Z,86.12
2017-04-04T03:29:45.476Z,86.12
2017-04-04T03:30:26.123Z,86.08
2017-04-04T03:31:06.709Z,85.93
2017-04-04T03:31:47.347Z,86.12
2017-04-04T03:32:27.941Z,85.93
2017-04-04T03:33:08.539Z,86.31
2017-04-04T03:33:49.109Z,86.22
2017-04-04T03:34:30.779Z,86.27
2017-04-04T03:35:11.377Z,85.93
2017-04-04T03:35:51.968Z,86.08
2017-04-04T03:36:32.611Z,85.93
2017-04-04T03:37:13.276Z,86.27
2017-04-04T03:37:53.922Z,86.18
2017-04-04T03:38:34.567Z,86.18
2017-04-04T03:39:15.228Z,85.8
2017-04-04T03:39:55.888Z,85.99
2017-04-04T03:40:36.536Z,85.99
2017-04-04T03:41:17.188Z,85.99
2017-04-04T03:41:57.835Z,85.61
2017-04-04T03:42:40.440Z,85.8
2017-04-04T03:43:21.096Z,85.8
2017-04-04T03:44:01.750Z,85.8
2017-04-04T03:44:42.400Z,85.8
2017-04-04T03:45:23.053Z,85.8
2017-04-04T03:46:04.734Z,85.8
2017-04-04T03:46:45.385Z,85.89
2017-04-04T03:47:26.023Z,85.8
2017-04-04T03:48:06.688Z,85.99
2017-04-04T03:48:47.336Z,85.89
2017-04-04T03:49:27.996Z,85.89
2017-04-04T03:50:08.647Z,85.99
2017-04-04T03:50:49.313Z,85.99
2017-04-04T03:51:29.887Z,86.08
2017-04-04T03:52:10.521Z,86.18
2017-04-04T03:52:52.199Z,86.08
2017-04-04T03:53:32.864Z,85.89
2017-04-04T03:54:13.502Z,86.18
2017-04-04T03:54:54.168Z,86.08
2017-04-04T03:55:34.853Z,86.08
2017-04-04T03:56:16.423Z,86.08
2017-04-04T03:56:57.023Z,86.08
2017-04-04T03:57:37.593Z,85.89
2017-04-04T03:58:18.252Z,85.89
2017-04-04T03:58:58.836Z,86.08
2017-04-04T03:59:39.435Z,86.18
2017-04-04T04:00:20.005Z,86.18
2017-04-04T04:01:00.657Z,85.99
2017-04-04T04:01:41.243Z,86.18
2017-04-04T04:02:21.838Z,86.18
2017-04-04T04:03:02.411Z,85.99
2017-04-04T04:03:43.079Z,86.18
2017-04-04T04:04:23.761Z,86.18
2017-04-04T04:05:05.368Z,85.99
2017-04-04T04:05:45.944Z,86.08
2017-04-04T04:06:26.594Z,86.18
2017-04-04T04:07:07.226Z,86.18
2017-04-04T04:07:47.794Z,86.18
2017-04-04T04:08:28.458Z,86.46
2017-04-04T04:09:09.083Z,86.55
2017-04-04T04:09:49.651Z,86.46
2017-04-04T04:10:30.310Z,86.46
2017-04-04T04:11:11.047Z,86.46
2017-04-04T04:11:51.694Z,86.74
2017-04-04T04:12:33.375Z,86.74
2017-04-04T04:13:14.030Z,86.27
2017-04-04T04:13:54.676Z,86.46
2017-04-04T04:14:36.359Z,86.36
2017-04-04T04:15:18.033Z,86.46
2017-04-04T04:15:59.716Z,86.36
2017-04-04T04:16:40.325Z,86.46
2017-04-04T04:17:20.914Z,86.55
2017-04-04T04:18:01.588Z,86.65
2017-04-04T04:18:43.268Z,86.55
2017-04-04T04:19:23.916Z,86.55
2017-04-04T04:20:04.616Z,86.55
2017-04-04T04:20:45.227Z,86.55
2017-04-04T04:21:25.876Z,86.65
2017-04-04T04:22:06.531Z,86.46
2017-04-04T04:22:48.198Z,86.46
2017-04-04T04:23:28.860Z,86.46
2017-04-04T04:24:09.516Z,86.36
2017-04-04T04:24:50.168Z,86.74
2017-04-04T04:25:30.827Z,86.65
2017-04-04T04:26:11.471Z,86.65
2017-04-04T04:26:52.116Z,86.36
2017-04-04T04:27:32.685Z,86.36
2017-04-04T04:28:13.330Z,86.27
2017-04-04T04:28:53.959Z,87.21
2017-04-04T04:29:34.535Z,87.21
2017-04-04T04:30:15.188Z,87.02
2017-04-04T04:30:55.814Z,87.02
2017-04-04T04:31:36.375Z,86.93
2017-04-04T04:32:17.965Z,87.02
2017-04-04T04:32:58.654Z,86.65
2017-04-04T04:33:39.257Z,87.21
2017-04-04T04:34:19.842Z,87.02
2017-04-04T04:35:00.473Z,87.02
2017-04-04T04:35:41.072Z,86.93
2017-04-04T04:36:21.656Z,86.83
2017-04-04T04:37:02.229Z,87.12
2017-04-04T04:37:42.881Z,87.02
2017-04-04T04:38:23.535Z,87.02
2017-04-04T04:39:04.219Z,86.65
2017-04-04T04:39:44.833Z,86.74
2017-04-04T04:40:25.499Z,86.83
2017-04-04T04:41:06.142Z,86.83
2017-04-04T04:41:46.850Z,86.74
2017-04-04T04:42:27.444Z,86.83
2017-04-04T04:43:09.121Z,86.83
2017-04-04T04:43:51.758Z,86.74
2017-04-04T04:44:32.395Z,86.83
2017-04-04T04:45:13.031Z,86.83
2017-04-04T04:45:53.677Z,86.93
2017-04-04T04:46:34.334Z,86.93
2017-04-04T04:47:14.986Z,86.83
2017-04-04T04:47:55.642Z,86.83
2017-04-04T04:48:36.292Z,86.83
2017-04-04T04:49:16.958Z,86.74
2017-04-04T04:49:59.542Z,86.74
2017-04-04T04:50:40.196Z,87.02
2017-04-04T04:51:21.871Z,86.65
2017-04-04T04:52:02.521Z,86.65
2017-04-04T04:52:43.178Z,86.65
2017-04-04T04:53:23.829Z,86.83
2017-04-04T04:54:04.488Z,86.83
2017-04-04T04:54:46.179Z,86.93
2017-04-04T04:55:26.822Z,86.46
2017-04-04T04:56:07.469Z,87.21
2017-04-04T04:56:48.115Z,87.02
2017-04-04T04:57:28.691Z,86.93
2017-04-04T04:58:09.343Z,87.69
2017-04-04T04:58:49.968Z,87.02
2017-04-04T04:59:30.551Z,86.93
2017-04-04T05:00:11.184Z,87.02
2017-04-04T05:00:51.835Z,86.74
2017-04-04T05:01:32.413Z,86.83
2017-04-04T05:02:13.075Z,86.83
2017-04-04T05:02:53.710Z,86.83
2017-04-04T05:03:34.363Z,86.83
2017-04-04T05:04:14.947Z,87.59
2017-04-04T05:04:55.645Z,86.74
2017-04-04T05:05:36.226Z,86.83
2017-04-04T05:06:16.871Z,86.74
2017-04-04T05:06:57.555Z,86.74
2017-04-04T05:07:38.155Z,86.83
2017-04-04T05:08:18.801Z,87.59
2017-04-04T05:08:59.482Z,87.12
2017-04-04T05:09:40.163Z,86.74
2017-04-04T05:10:20.768Z,87.5
2017-04-04T05:11:01.347Z,86.65
2017-04-04T05:11:42.003Z,86.83
2017-04-04T05:12:22.646Z,86.83
2017-04-04T05:13:03.332Z,87.21
2017-04-04T05:13:43.981Z,87.02
2017-04-04T05:14:24.636Z,87.5
2017-04-04T05:15:05.287Z,87.02
2017-04-04T05:15:45.940Z,86.83
2017-04-04T05:16:26.592Z,86.74
2017-04-04T05:17:07.269Z,86.83
2017-04-04T05:17:47.899Z,86.83
2017-04-04T05:18:28.551Z,86.83
2017-04-04T05:19:09.204Z,86.83
2017-04-04T05:19:49.859Z,86.83
2017-04-04T05:20:30.500Z,86.74
2017-04-04T05:21:11.168Z,86.83
2017-04-04T05:21:51.816Z,87.12
2017-04-04T05:22:32.478Z,87.5
2017-04-04T05:23:13.124Z,87.02
2017-04-04T05:23:53.785Z,86.83
2017-04-04T05:24:34.433Z,87.12
2017-04-04T05:25:15.090Z,86.83
2017-04-04T05:25:55.739Z,86.83
2017-04-04T05:26:37.354Z,86.93
2017-04-04T05:27:17.939Z,86.93
2017-04-04T05:27:58.578Z,86.93
2017-04-04T05:28:39.168Z,86.83
2017-04-04T05:29:19.761Z,86.83
2017-04-04T05:30:00.334Z,86.65
2017-04-04T05:30:40.986Z,86.93
2017-04-04T05:31:21.570Z,86.83
2017-04-04T05:32:02.171Z,86.74
2017-04-04T05:32:42.757Z,86.74
2017-04-04T05:33:24.431Z,86.93
2017-04-04T05:34:05.103Z,87.69
2017-04-04T05:34:45.707Z,86.93
2017-04-04T05:35:26.289Z,87.02
2017-04-04T05:36:07.953Z,87.02
2017-04-04T05:36:48.639Z,87.12
2017-04-04T05:37:29.291Z,87.21
2017-04-04T05:38:09.862Z,87.02
2017-04-04T05:38:50.471Z,87.21
2017-04-04T05:39:32.136Z,87.21
2017-04-04T05:40:13.826Z,87.21
2017-04-04T05:40:54.480Z,87.07
2017-04-04T05:41:35.179Z,86.83
2017-04-04T05:42:15.751Z,86.93
2017-04-04T05:42:56.325Z,86.83
2017-04-04T05:43:36.975Z,86.93
2017-04-04T05:44:17.582Z,86.79
2017-04-04T05:44:58.260Z,86.88
2017-04-04T05:45:38.838Z,87.07
2017-04-04T05:46:19.492Z,86.79
2017-04-04T05:47:00.183Z,87.02
2017-04-04T05:47:40.765Z,86.88
2017-04-04T05:48:21.339Z,87.16
2017-04-04T05:49:01.967Z,87.07
2017-04-04T05:49:42.540Z,86.98
2017-04-04T05:50:23.134Z,87.16
2017-04-04T05:51:03.727Z,87.26
2017-04-04T05:51:44.300Z,87.26
2017-04-04T05:52:24.953Z,87.16
2017-04-04T05:53:05.539Z,86.88
2017-04-04T05:53:46.136Z,87.07
2017-04-04T05:54:26.711Z,87.26
2017-04-04T05:55:07.412Z,87.07
2017-04-04T05:55:47.989Z,87.07
2017-04-04T05:56:28.668Z,86.41
2017-04-04T05:57:09.320Z,86.5
2017-04-04T05:57:49.965Z,86.31
2017-04-04T05:58:30.620Z,86.6
2017-04-04T05:59:11.277Z,86.41
2017-04-04T05:59:51.929Z,86.41
2017-04-04T06:00:32.575Z,86.41
2017-04-04T06:01:13.251Z,86.5
2017-04-04T06:01:53.883Z,86.41
2017-04-04T06:02:34.540Z,86.41
2017-04-04T06:03:16.235Z,86.41
2017-04-04T06:03:57.914Z,86.41
2017-04-04T06:04:38.584Z,86.41
2017-04-04T06:05:19.226Z,86.5
2017-04-04T06:05:59.894Z,86.41
2017-04-04T06:06:40.546Z,86.41
2017-04-04T06:07:21.160Z,86.41
2017-04-04T06:08:01.808Z,86.41
2017-04-04T06:08:48.018Z,86.31
2017-04-04T06:09:28.644Z,87.16
2017-04-04T06:10:09.312Z,87.26
2017-04-04T06:10:50.987Z,87.07
2017-04-04T06:11:31.631Z,87.26
2017-04-04T06:12:13.332Z,86.88
2017-04-04T06:12:53.953Z,87.26
2017-04-04T06:13:35.676Z,87.07
2017-04-04T06:14:16.371Z,86.5
2017-04-04T06:14:57.051Z,86.6
2017-04-04T06:15:37.673Z,87.07
2017-04-04T06:16:18.303Z,86.6
2017-04-04T06:16:58.941Z,86.35
2017-04-04T06:17:39.612Z,86.5
2017-04-04T06:18:20.304Z,86.55
2017-04-04T06:19:00.864Z,86.55
2017-04-04T06:19:41.510Z,86.31
2017-04-04T06:20:22.101Z,86.45
2017-04-04T06:21:02.694Z,86.64
2017-04-04T06:21:43.282Z,86.45
2017-04-04T06:22:23.923Z,86.45
2017-04-04T06:23:04.531Z,86.64
2017-04-04T06:23:45.202Z,86.64
2017-04-04T06:24:25.799Z,86.45
2017-04-04T06:25:06.427Z,87.12
2017-04-04T06:25:47.020Z,86.64
2017-04-04T06:26:27.625Z,86.35
2017-04-04T06:27:08.197Z,86.93
2017-04-04T06:27:48.856Z,86.93
2017-04-04T06:28:29.527Z,87.12
2017-04-04T06:29:10.220Z,86.93
2017-04-04T06:29:50.787Z,86.64
2017-04-04T06:30:31.441Z,86.55
2017-04-04T06:31:12.064Z,86.45
2017-04-04T06:31:52.704Z,86.35
2017-04-04T06:32:34.379Z,86.93
2017-04-04T06:33:15.021Z,86.93
2017-04-04T06:33:55.759Z,86.35
2017-04-04T06:34:36.327Z,86.45
2017-04-04T06:35:16.968Z,86.45
2017-04-04T06:35:57.541Z,86.35
2017-04-04T06:36:38.121Z,86.93
2017-04-04T06:37:18.707Z,86.55
2017-04-04T06:37:59.348Z,87.4
2017-04-04T06:38:39.872Z,87.21
2017-04-04T06:39:20.561Z,87.12
2017-04-04T06:40:01.120Z,87.02
2017-04-04T06:40:41.762Z,86.93
2017-04-04T06:41:22.397Z,86.93
2017-04-04T06:42:03.766Z,87.4
2017-04-04T06:42:44.453Z,86.64
2017-04-04T06:43:25.104Z,86.64
2017-04-04T06:44:05.733Z,86.64
2017-04-04T06:44:46.297Z,86.59
2017-04-04T06:45:26.960Z,86.55
2017-04-04T06:46:07.650Z,86.49
2017-04-04T06:46:48.220Z,86.55
2017-04-04T06:47:28.903Z,86.59
2017-04-04T06:48:09.543Z,86.49
2017-04-04T06:48:50.096Z,86.49
2017-04-04T06:49:30.773Z,86.59
2017-04-04T06:50:12.034Z,86.59
2017-04-04T06:50:52.647Z,86.59
2017-04-04T06:51:33.345Z,86.78
2017-04-04T06:52:13.987Z,86.87
2017-04-04T06:52:54.565Z,86.4
2017-04-04T06:53:36.209Z,86.97
2017-04-04T06:54:16.774Z,86.3
2017-04-04T06:54:57.427Z,86.68
2017-04-04T06:55:38.064Z,86.59
2017-04-04T06:56:18.650Z,86.59
2017-04-04T06:56:59.267Z,86.49
2017-04-04T06:57:40.067Z,86.87
2017-04-04T06:58:21.895Z,86.78
2017-04-04T06:59:02.461Z,86.4
2017-04-04T06:59:43.117Z,86.3
2017-04-04T07:00:23.797Z,86.4
2017-04-04T07:01:05.430Z,86.3
2017-04-04T07:01:46.075Z,86.21
2017-04-04T07:02:26.731Z,86.11
2017-04-04T07:03:07.392Z,86.49
2017-04-04T07:03:47.968Z,85.93
2017-04-04T07:04:28.592Z,85.97
2017-04-04T07:05:09.249Z,86.16
2017-04-04T07:05:49.898Z,86.11
2017-04-04T07:06:30.551Z,85.97
2017-04-04T07:07:11.202Z,86.21
2017-04-04T07:07:51.920Z,86.35
2017-04-04T07:08:32.610Z,86.07
2017-04-04T07:09:13.265Z,85.87
2017-04-04T07:09:53.908Z,85.78
2017-04-04T07:10:34.563Z,85.68
2017-04-04T07:11:15.327Z,85.78
2017-04-04T07:11:55.901Z,85.3
2017-04-04T07:12:36.556Z,85.49
2017-04-04T07:13:17.235Z,85.49
2017-04-04T07:13:57.832Z,85.4
2017-04-04T07:14:38.642Z,85.68
2017-04-04T07:15:19.259Z,85.59
2017-04-04T07:15:59.854Z,85.68
2017-04-04T07:16:40.467Z,85.68
2017-04-04T07:17:21.017Z,85.21
2017-04-04T07:18:01.663Z,85.11
2017-04-04T07:18:42.256Z,85.11
2017-04-04T07:19:22.850Z,85.02
2017-04-04T07:20:03.428Z,85.11
2017-04-04T07:20:44.079Z,85.06
2017-04-04T07:21:24.763Z,85.11
2017-04-04T07:22:05.396Z,85.16
2017-04-04T07:22:46.025Z,85.16
2017-04-04T07:23:26.600Z,84.97
2017-04-04T07:24:07.172Z,84.49
2017-04-04T07:24:47.750Z,84.4
2017-04-04T07:25:28.315Z,84.78
2017-04-04T07:26:08.890Z,85.06
2017-04-04T07:26:49.463Z,84.3
2017-04-04T07:27:31.088Z,84.21
2017-04-04T07:28:11.655Z,84.49
2017-04-04T07:28:58.249Z,84.59
2017-04-04T07:29:38.851Z,84.3
2017-04-04T07:30:19.469Z,84.21
2017-04-04T07:31:00.163Z,84.21
2017-04-04T07:31:40.773Z,84.4
2017-04-04T07:32:21.411Z,84.11
2017-04-04T07:33:03.103Z,84.3
2017-04-04T07:33:43.727Z,84.21
2017-04-04T07:34:24.390Z,84.49
2017-04-04T07:35:06.136Z,84.3
2017-04-04T07:35:46.701Z,84.4
2017-04-04T07:36:29.302Z,83.83
2017-04-04T07:37:10.013Z,83.73
2017-04-04T07:37:50.675Z,83.64
2017-04-04T07:38:31.276Z,83.73
2017-04-04T07:39:12.037Z,83.83
2017-04-04T07:39:52.821Z,83.92
2017-04-04T07:40:33.538Z,83.54
2017-04-04T07:41:15.198Z,83.36
2017-04-04T07:41:55.876Z,83.26
2017-04-04T07:42:36.467Z,83.26
2017-04-04T07:43:17.092Z,83.64
2017-04-04T07:43:57.642Z,83.64
2017-04-04T07:44:38.272Z,83.64
2017-04-04T07:45:18.875Z,83.3
2017-04-04T07:45:59.523Z,83.26
2017-04-04T07:46:40.186Z,83.2
2017-04-04T07:47:20.779Z,83.2
2017-04-04T07:48:01.339Z,83.2
2017-04-04T07:48:42.008Z,83.2
2017-04-04T07:49:22.593Z,82.82
2017-04-04T07:50:03.181Z,83.3
2017-04-04T07:50:43.748Z,83.3
2017-04-04T07:51:24.395Z,83.49
2017-04-04T07:52:05.007Z,83.2
2017-04-04T07:52:46.625Z,83.2
2017-04-04T07:53:27.198Z,83.3
2017-04-04T07:54:07.845Z,82.82
2017-04-04T07:54:48.486Z,82.64
2017-04-04T07:55:29.136Z,82.82
2017-04-04T07:56:10.816Z,82.82
2017-04-04T07:56:51.384Z,82.64
2017-04-04T07:57:31.956Z,82.73
2017-04-04T07:58:12.671Z,82.82
2017-04-04T07:58:53.393Z,82.54
2017-04-04T07:59:34.112Z,82.35
2017-04-04T08:00:14.742Z,82.54
2017-04-04T08:00:55.388Z,82.82
2017-04-04T08:01:35.957Z,82.54
2017-04-04T08:02:16.623Z,82.64
2017-04-04T08:02:57.303Z,82.45
2017-04-04T08:03:37.989Z,82.39
2017-04-04T08:04:18.576Z,82.49
2017-04-04T08:04:59.328Z,81.92
2017-04-04T08:05:39.913Z,82.1
2017-04-04T08:06:20.522Z,82.2
2017-04-04T08:07:01.088Z,82.1
2017-04-04T08:07:41.724Z,82.1
2017-04-04T08:08:22.361Z,82.1
2017-04-04T08:09:02.920Z,81.92
2017-04-04T08:09:43.575Z,81.92
2017-04-04T08:10:24.314Z,81.82
2017-04-04T08:11:04.863Z,81.92
2017-04-04T08:11:45.564Z,81.54
2017-04-04T08:12:26.218Z,81.44
2017-04-04T08:13:06.815Z,81.63
2017-04-04T08:13:47.373Z,81.54
2017-04-04T08:14:27.924Z,81.25
2017-04-04T08:15:08.585Z,81.25
2017-04-04T08:15:49.188Z,80.87
2017-04-04T08:16:29.781Z,80.77
2017-04-04T08:17:10.469Z,81.16
2017-04-04T08:17:51.132Z,80.68
2017-04-04T08:18:31.797Z,80.68
2017-04-04T08:19:12.398Z,80.87
2017-04-04T08:19:53.077Z,80.4
2017-04-04T08:20:34.619Z,80.15
2017-04-04T08:21:21.255Z,80.53
2017-04-04T08:22:01.833Z,80.44
2017-04-04T08:22:43.489Z,79.96
2017-04-04T08:23:24.200Z,80.24
2017-04-04T08:24:04.773Z,79.96
2017-04-04T08:24:45.463Z,79.58
2017-04-04T08:25:26.043Z,79.68
2017-04-04T08:26:06.606Z,79.39
2017-04-04T08:26:47.328Z,79.58
2017-04-04T08:27:27.959Z,79.68
2017-04-04T08:28:08.607Z,79.77
2017-04-04T08:28:49.344Z,79.39
2017-04-04T08:29:30.031Z,79.2
2017-04-04T08:30:10.725Z,78.91
2017-04-04T08:30:51.545Z,78.91
2017-04-04T08:31:32.250Z,79.2
2017-04-04T08:32:12.970Z,78.91
2017-04-04T08:32:53.683Z,78.72
2017-04-04T08:33:34.412Z,78.34
2017-04-04T08:34:15.122Z,78.53
2017-04-04T08:34:55.719Z,78.44
2017-04-04T08:35:36.391Z,77.87
2017-04-04T08:36:17.029Z,78.16
2017-04-04T08:36:57.659Z,77.68
2017-04-04T08:37:38.418Z,77.2
2017-04-04T08:38:19.065Z,77.58
2017-04-04T08:38:59.716Z,77.15
2017-04-04T08:39:40.385Z,77.24
2017-04-04T08:40:21.019Z,77.34
2017-04-04T08:41:01.678Z,77.24
2017-04-04T08:41:42.255Z,77.53
2017-04-04T08:42:22.903Z,77.53
2017-04-04T08:43:03.506Z,77.43
2017-04-04T08:43:44.209Z,77.53
2017-04-04T08:44:24.964Z,77.53
2017-04-04T08:45:05.755Z,77.53
2017-04-04T08:45:47.331Z,77.05
2017-04-04T08:46:28.033Z,77.24
2017-04-04T08:47:08.689Z,77.24